createdAt,value
2018-07-05T00:00:27.894Z,6.83
2018-07-05T00:03:14.331Z,6.83
2018-07-05T00:06:00.883Z,6.67
2018-07-05T00:08:41.559Z,6.40
2018-07-05T00:11:27.934Z,6.77
2018-07-05T00:14:14.426Z,6.97
2018-07-05T00:17:00.977Z,6.63
2018-07-05T00:19:47.742Z,7.20
2018-07-05T00:22:34.076Z,7.17
2018-07-05T00:25:20.585Z,6.70
2018-07-05T00:28:06.939Z,6.93
2018-07-05T00:30:53.912Z,6.73
2018-07-05T00:33:41.399Z,6.67
2018-07-05T00:36:27.719Z,7.03
2018-07-05T00:39:14.008Z,6.90
2018-07-05T00:42:00.485Z,7.40
2018-07-05T00:44:46.970Z,6.90
2018-07-05T00:47:33.469Z,7.53
2018-07-05T00:50:19.947Z,7.60
2018-07-05T00:53:06.436Z,7.07
2018-07-05T00:55:52.969Z,7.60
2018-07-05T00:58:39.399Z,7.20
2018-07-05T01:01:19.889Z,7.17
2018-07-05T01:04:06.463Z,7.07
2018-07-05T01:06:53.006Z,7.30
2018-07-05T01:09:39.490Z,6.93
2018-07-05T01:12:25.963Z,7.60
2018-07-05T01:15:12.320Z,7.10
2018-07-05T01:17:58.764Z,7.40
2018-07-05T01:20:45.131Z,7.00
2018-07-05T01:23:31.738Z,6.83
2018-07-05T01:26:18.650Z,7.00
2018-07-05T01:29:05.285Z,7.43
2018-07-05T01:31:51.729Z,7.03
2018-07-05T01:34:38.219Z,6.30
2018-07-05T01:37:24.618Z,6.60
2018-07-05T01:40:11.050Z,6.53
2018-07-05T01:42:57.653Z,6.57
2018-07-05T01:45:44.147Z,6.77
2018-07-05T01:48:30.841Z,6.43
2018-07-05T01:51:18.027Z,5.60
2018-07-05T01:54:04.510Z,6.57
2018-07-05T01:56:51.920Z,5.93
2018-07-05T01:59:38.327Z,6.00
2018-07-05T02:02:24.714Z,5.97
2018-07-05T02:05:11.201Z,6.33
2018-07-05T02:08:00.976Z,6.23
2018-07-05T02:10:47.427Z,6.00
2018-07-05T02:13:33.856Z,6.10
2018-07-05T02:16:20.542Z,6.43
2018-07-05T02:19:07.097Z,6.27
2018-07-05T02:21:53.486Z,6.10
2018-07-05T02:24:40.043Z,6.43
2018-07-05T02:27:21.059Z,5.73
2018-07-05T02:30:07.322Z,6.33
2018-07-05T02:32:53.852Z,5.97
2018-07-05T02:35:40.356Z,6.23
2018-07-05T02:38:26.970Z,6.00
2018-07-05T02:41:13.624Z,6.30
2018-07-05T02:44:00.129Z,6.57
2018-07-05T02:46:46.616Z,6.20
2018-07-05T02:49:32.996Z,6.10
2018-07-05T02:52:19.417Z,6.23
2018-07-05T02:55:05.797Z,6.03
2018-07-05T02:57:52.268Z,6.73
2018-07-05T03:00:38.955Z,6.43
2018-07-05T03:03:27.277Z,6.53
2018-07-05T03:06:13.802Z,6.67
2018-07-05T03:09:00.155Z,6.43
2018-07-05T03:11:40.670Z,6.13
2018-07-05T03:14:27.266Z,7.17
2018-07-05T03:17:13.754Z,7.00
2018-07-05T03:20:00.373Z,6.40
2018-07-05T03:22:46.808Z,6.77
2018-07-05T03:25:33.180Z,6.67
2018-07-05T03:28:19.593Z,6.57
2018-07-05T03:31:06.114Z,7.07
2018-07-05T03:33:52.566Z,6.23
2018-07-05T03:36:38.912Z,6.77
2018-07-05T03:39:25.272Z,7.13
2018-07-05T03:42:12.579Z,6.60
2018-07-05T03:44:59.058Z,6.37
2018-07-05T03:47:45.592Z,6.53
2018-07-05T03:50:32.034Z,6.17
2018-07-05T03:53:18.430Z,6.30
2018-07-05T03:56:04.896Z,6.33
2018-07-05T03:58:51.431Z,5.70
2018-07-05T04:01:37.942Z,6.07
2018-07-05T04:04:24.341Z,5.93
2018-07-05T04:07:10.730Z,5.53
2018-07-05T04:09:57.898Z,5.40
2018-07-05T04:12:44.521Z,5.33
2018-07-05T04:15:31.027Z,5.43
2018-07-05T04:18:17.710Z,5.50
2018-07-05T04:21:04.492Z,4.97
2018-07-05T04:23:51.174Z,5.77
2018-07-05T04:26:37.504Z,4.90
2018-07-05T04:29:24.584Z,4.93
2018-07-05T04:32:11.094Z,5.00
2018-07-05T04:34:57.339Z,5.03
2018-07-05T04:37:43.682Z,5.03
2018-07-05T04:40:30.008Z,4.40
2018-07-05T04:43:16.829Z,4.87
2018-07-05T04:46:03.343Z,5.00
2018-07-05T04:48:49.894Z,5.27
2018-07-05T04:51:36.664Z,4.90
2018-07-05T04:54:23.271Z,4.97
2018-07-05T04:57:03.789Z,5.30
2018-07-05T04:59:50.236Z,5.47
2018-07-05T05:02:36.776Z,5.87
2018-07-05T05:05:23.394Z,5.90
2018-07-05T05:08:09.926Z,5.50
2018-07-05T05:10:57.453Z,5.57
2018-07-05T05:13:43.912Z,5.43
2018-07-05T05:16:30.658Z,5.63
2018-07-05T05:19:17.266Z,5.47
2018-07-05T05:22:03.839Z,5.30
2018-07-05T05:24:50.473Z,5.27
2018-07-05T05:27:36.947Z,5.87
2018-07-05T05:30:23.596Z,4.87
2018-07-05T05:33:10.175Z,5.10
2018-07-05T05:35:56.552Z,4.73
2018-07-05T05:38:43.170Z,5.00
2018-07-05T05:41:29.699Z,4.37
2018-07-05T05:44:15.968Z,5.23
2018-07-05T05:47:02.663Z,5.00
2018-07-05T05:49:49.121Z,5.17
2018-07-05T05:52:35.865Z,5.20
2018-07-05T05:55:22.200Z,5.40
2018-07-05T05:58:08.596Z,5.80
2018-07-05T06:00:55.239Z,5.93
2018-07-05T06:03:41.919Z,5.47
2018-07-05T06:06:22.394Z,6.33
2018-07-05T06:09:08.751Z,5.80
2018-07-05T06:11:55.202Z,6.27
2018-07-05T06:14:41.803Z,6.53
2018-07-05T06:17:28.347Z,6.33
2018-07-05T06:20:14.878Z,5.97
2018-07-05T06:23:01.500Z,6.93
2018-07-05T06:25:48.011Z,6.63
2018-07-05T06:28:34.512Z,6.60
2018-07-05T06:31:20.907Z,6.77
2018-07-05T06:34:07.343Z,6.80
2018-07-05T06:36:53.676Z,6.97
2018-07-05T06:39:40.193Z,7.13
2018-07-05T06:42:26.699Z,7.07
2018-07-05T06:45:13.087Z,6.40
2018-07-05T06:47:59.574Z,7.30
2018-07-05T06:50:46.283Z,6.97
2018-07-05T06:53:32.588Z,8.70
2018-07-05T06:56:19.089Z,10.67
2018-07-05T06:59:05.664Z,11.17
2018-07-05T07:01:52.072Z,11.70
2018-07-05T07:04:38.558Z,10.87
2018-07-05T07:07:25.270Z,11.77
2018-07-05T07:10:11.948Z,10.33
2018-07-05T07:12:58.418Z,10.07
2018-07-05T07:15:45.021Z,11.03
2018-07-05T07:18:31.553Z,10.63
2018-07-05T07:21:18.162Z,10.30
2018-07-05T07:24:04.613Z,10.13
2018-07-05T07:26:51.139Z,10.60
2018-07-05T07:29:37.630Z,10.77
2018-07-05T07:32:24.103Z,10.23
2018-07-05T07:35:10.634Z,10.60
2018-07-05T07:37:57.643Z,9.83
2018-07-05T07:40:44.034Z,10.67
2018-07-05T07:43:17.962Z,10.90
2018-07-05T07:45:45.896Z,10.73
2018-07-05T07:48:13.710Z,11.00
2018-07-05T07:50:41.576Z,11.27
2018-07-05T07:53:09.439Z,12.37
2018-07-05T07:55:37.296Z,11.97
2018-07-05T07:58:05.167Z,12.30
2018-07-05T08:00:33.688Z,10.97
2018-07-05T08:03:01.552Z,11.47
2018-07-05T08:05:29.375Z,11.13
2018-07-05T08:07:57.271Z,10.47
2018-07-05T08:10:25.146Z,11.67
2018-07-05T08:12:53.023Z,9.83
2018-07-05T08:15:20.844Z,12.17
2018-07-05T08:17:48.819Z,11.47
2018-07-05T08:20:16.650Z,10.07
2018-07-05T08:22:44.521Z,11.50
2018-07-05T08:25:12.405Z,11.20
2018-07-05T08:27:40.318Z,12.50
2018-07-05T08:30:08.142Z,11.27
2018-07-05T08:32:36.841Z,13.43
2018-07-05T08:35:04.697Z,12.87
2018-07-05T08:37:32.609Z,13.37
2018-07-05T08:40:00.475Z,11.90
2018-07-05T08:42:28.314Z,10.40
2018-07-05T08:44:56.239Z,13.63
2018-07-05T08:47:24.399Z,13.40
2018-07-05T08:49:52.238Z,13.00
2018-07-05T08:52:20.086Z,12.57
2018-07-05T08:54:48.059Z,13.87
2018-07-05T08:57:16.052Z,14.13
2018-07-05T08:59:43.921Z,14.90
2018-07-05T09:02:11.815Z,14.80
2018-07-05T09:04:39.635Z,13.53
2018-07-05T09:07:07.563Z,15.87
2018-07-05T09:09:35.400Z,14.57
2018-07-05T09:12:03.214Z,12.77
2018-07-05T09:14:31.183Z,16.50
2018-07-05T09:16:59.059Z,15.27
2018-07-05T09:19:26.965Z,14.87
2018-07-05T09:21:54.825Z,15.00
2018-07-05T09:24:22.701Z,15.47
2018-07-05T09:26:50.613Z,16.53
2018-07-05T09:32:05.386Z,15.23
2018-07-05T09:34:33.259Z,14.43
2018-07-05T09:37:01.467Z,14.93
2018-07-05T09:39:29.320Z,17.33
2018-07-05T09:41:57.244Z,17.30
2018-07-05T09:44:25.743Z,16.17
2018-07-05T09:46:53.613Z,14.67
2018-07-05T09:49:21.447Z,17.17
2018-07-05T09:51:49.319Z,16.03
2018-07-05T09:54:17.218Z,17.30
2018-07-05T09:56:45.164Z,15.93
2018-07-05T09:59:13.023Z,15.73
2018-07-05T10:01:40.914Z,15.97
2018-07-05T10:04:09.406Z,15.57
2018-07-05T10:06:37.239Z,15.50
2018-07-05T10:09:05.571Z,17.83
2018-07-05T10:11:33.616Z,14.27
2018-07-05T10:14:01.689Z,15.97
2018-07-05T10:16:30.159Z,15.70
2018-07-05T10:18:57.988Z,15.33
2018-07-05T10:21:25.865Z,14.37
2018-07-05T10:23:53.722Z,14.47
2018-07-05T10:26:21.942Z,15.17
2018-07-05T10:29:03.117Z,15.23
2018-07-05T10:31:49.720Z,14.83
2018-07-05T10:34:23.699Z,16.63
2018-07-05T10:36:51.557Z,17.33
2018-07-05T10:39:19.525Z,13.50
2018-07-05T10:41:59.824Z,16.87
2018-07-05T10:44:46.088Z,15.77
2018-07-05T10:47:32.530Z,17.53
2018-07-05T10:50:18.988Z,15.27
2018-07-05T10:53:06.530Z,18.70
2018-07-05T10:55:52.928Z,16.37
2018-07-05T10:58:39.356Z,16.23
2018-07-05T11:01:25.990Z,17.30
2018-07-05T11:04:12.553Z,17.63
2018-07-05T11:06:58.974Z,15.03
2018-07-05T11:09:45.325Z,20.57
2018-07-05T11:12:31.949Z,19.80
2018-07-05T11:15:18.385Z,17.53
2018-07-05T11:18:04.891Z,15.53
2018-07-05T11:20:51.459Z,15.80
2018-07-05T11:23:38.016Z,16.77
2018-07-05T11:26:18.479Z,18.87
2018-07-05T11:29:04.776Z,15.03
2018-07-05T11:31:51.472Z,16.50
2018-07-05T11:34:37.848Z,19.67
2018-07-05T11:37:25.060Z,20.53
2018-07-05T11:40:11.795Z,19.40
2018-07-05T11:42:58.422Z,16.70
2018-07-05T11:45:45.220Z,19.83
2018-07-05T11:48:31.801Z,20.43
2018-07-05T11:51:18.282Z,19.80
2018-07-05T11:54:04.815Z,19.00
2018-07-05T11:56:51.373Z,21.93
2018-07-05T11:59:38.000Z,19.17
2018-07-05T12:02:24.552Z,18.27
2018-07-05T12:05:11.026Z,20.13
2018-07-05T12:07:58.721Z,19.27
2018-07-05T12:10:45.316Z,16.27
2018-07-05T12:13:32.110Z,14.63
2018-07-05T12:16:18.611Z,15.80
2018-07-05T12:19:05.075Z,16.17
2018-07-05T12:21:51.437Z,12.53
2018-07-05T12:24:37.972Z,15.17
2018-07-05T12:27:24.547Z,14.57
2018-07-05T12:30:11.275Z,12.07
2018-07-05T12:32:58.020Z,14.33
2018-07-05T12:35:44.568Z,17.70
2018-07-05T12:38:31.056Z,16.23
2018-07-05T12:41:17.620Z,16.23
2018-07-05T12:44:04.079Z,14.47
2018-07-05T12:46:50.666Z,16.00
2018-07-05T12:49:37.102Z,15.80
2018-07-05T12:52:23.659Z,14.17
2018-07-05T12:55:10.730Z,13.57
2018-07-05T12:57:57.389Z,14.27
2018-07-05T13:00:43.962Z,12.87
2018-07-05T13:03:24.589Z,12.90
2018-07-05T13:06:11.140Z,12.07
2018-07-05T13:08:57.549Z,12.47
2018-07-05T13:11:44.027Z,12.90
2018-07-05T13:14:30.936Z,11.17
2018-07-05T13:17:17.484Z,12.00
2018-07-05T13:20:04.078Z,11.30
2018-07-05T13:22:50.709Z,11.97
2018-07-05T13:25:37.186Z,11.77
2018-07-05T13:28:23.647Z,10.27
2018-07-05T13:31:10.374Z,8.93
2018-07-05T13:33:57.026Z,9.97
2018-07-05T13:36:43.579Z,9.37
2018-07-05T13:39:30.010Z,8.47
2018-07-05T13:42:16.635Z,8.93
2018-07-05T13:45:03.131Z,9.83
2018-07-05T13:47:49.991Z,10.60
2018-07-05T13:50:36.515Z,8.77
2018-07-05T13:53:22.982Z,9.17
2018-07-05T13:56:09.551Z,8.53
2018-07-05T13:58:56.104Z,8.43
2018-07-05T14:01:42.631Z,8.23
2018-07-05T14:04:29.349Z,6.90
2018-07-05T14:07:15.735Z,8.00
2018-07-05T14:09:56.278Z,9.17
2018-07-05T14:12:43.072Z,8.50
2018-07-05T14:15:29.651Z,9.10
2018-07-05T14:18:16.191Z,7.83
2018-07-05T14:21:04.124Z,6.97
2018-07-05T14:23:50.450Z,7.90
2018-07-05T14:26:36.962Z,8.87
2018-07-05T14:29:23.374Z,8.30
2018-07-05T14:32:09.967Z,8.10
2018-07-05T14:34:57.071Z,9.27
2018-07-05T14:37:43.524Z,7.67
2018-07-05T14:40:29.923Z,8.63
2018-07-05T14:43:16.618Z,8.60
2018-07-05T14:46:03.635Z,8.40
2018-07-05T14:48:50.307Z,7.57
2018-07-05T14:51:37.080Z,7.70
2018-07-05T14:54:24.857Z,6.87
2018-07-05T14:57:11.506Z,6.77
2018-07-05T14:59:57.972Z,7.07
2018-07-05T15:02:44.377Z,7.03
2018-07-05T15:05:30.981Z,8.90
2018-07-05T15:08:17.439Z,7.03
2018-07-05T15:11:04.133Z,9.47
2018-07-05T15:13:51.163Z,7.57
2018-07-05T15:16:37.975Z,7.23
2018-07-05T15:19:25.061Z,6.90
2018-07-05T15:22:13.045Z,5.93
2018-07-05T15:25:03.615Z,6.57
2018-07-05T15:27:50.309Z,8.30
2018-07-05T15:30:36.768Z,7.63
2018-07-05T15:33:23.182Z,6.53
2018-07-05T15:36:09.657Z,8.43
2018-07-05T15:38:56.077Z,7.47
2018-07-05T15:41:42.568Z,6.80
2018-07-05T15:44:29.469Z,9.07
2018-07-05T15:47:15.923Z,7.80
2018-07-05T15:50:02.647Z,8.13
2018-07-05T15:52:49.074Z,7.10
2018-07-05T15:55:35.524Z,6.70
2018-07-05T15:58:22.040Z,8.40
2018-07-05T16:01:09.678Z,8.30
2018-07-05T16:03:56.301Z,7.40
2018-07-05T16:06:42.705Z,7.37
2018-07-05T16:09:29.270Z,9.47
2018-07-05T16:12:15.742Z,7.43
2018-07-05T16:15:02.364Z,7.70
2018-07-05T16:17:48.891Z,8.03
2018-07-05T16:20:35.491Z,6.50
2018-07-05T16:23:22.098Z,7.53
2018-07-05T16:26:08.602Z,7.10
2018-07-05T16:28:55.058Z,6.83
2018-07-05T16:31:41.515Z,7.10
2018-07-05T16:34:27.892Z,6.37
2018-07-05T16:37:14.696Z,6.97
2018-07-05T16:40:01.660Z,6.57
2018-07-05T16:42:48.092Z,6.53
2018-07-05T16:45:34.762Z,5.80
2018-07-05T16:48:25.595Z,5.93
2018-07-05T16:51:12.228Z,6.50
2018-07-05T16:53:58.761Z,5.43
2018-07-05T16:56:45.345Z,6.40
2018-07-05T16:59:32.155Z,5.63
2018-07-05T17:02:18.890Z,6.13
2018-07-05T17:05:05.472Z,6.17
2018-07-05T17:07:51.957Z,6.90
2018-07-05T17:10:38.334Z,6.40
2018-07-05T17:13:24.997Z,5.97
2018-07-05T17:16:11.793Z,6.27
2018-07-05T17:18:58.382Z,7.20
2018-07-05T17:21:44.819Z,6.73
2018-07-05T17:24:35.618Z,6.90
2018-07-05T17:27:22.207Z,6.37
2018-07-05T17:30:08.658Z,5.93
2018-07-05T17:32:55.290Z,6.70
2018-07-05T17:35:42.128Z,6.50
2018-07-05T17:38:28.485Z,6.37
2018-07-05T17:41:15.023Z,6.83
2018-07-05T17:44:01.897Z,6.87
2018-07-05T17:46:48.646Z,6.50
2018-07-05T17:49:35.370Z,6.50
2018-07-05T17:52:15.790Z,7.67
2018-07-05T17:55:02.544Z,6.87
2018-07-05T17:57:49.263Z,7.10
2018-07-05T18:00:29.704Z,7.07
2018-07-05T18:03:16.495Z,6.97
2018-07-05T18:06:03.053Z,6.63
2018-07-05T18:08:49.539Z,7.00
2018-07-05T18:11:36.191Z,6.83
2018-07-05T18:14:22.723Z,7.87
2018-07-05T18:17:09.232Z,7.40
2018-07-05T18:19:56.543Z,7.53
2018-07-05T18:22:43.190Z,7.87
2018-07-05T18:25:30.033Z,6.97
2018-07-05T18:28:16.787Z,6.37
2018-07-05T18:31:03.272Z,6.70
2018-07-05T18:33:49.957Z,5.97
2018-07-05T18:36:36.450Z,7.13
2018-07-05T18:39:22.965Z,6.33
2018-07-05T18:42:09.593Z,6.23
2018-07-05T18:44:56.096Z,6.33
2018-07-05T18:47:42.658Z,6.70
2018-07-05T18:50:29.334Z,6.37
2018-07-05T18:53:15.846Z,6.40
2018-07-05T18:56:02.406Z,6.77
2018-07-05T18:58:49.128Z,6.30
2018-07-05T19:01:35.641Z,7.10
2018-07-05T19:04:22.260Z,6.50
2018-07-05T19:07:09.107Z,5.73
2018-07-05T19:22:55.679Z,6.00
2018-07-05T19:25:42.171Z,6.53
2018-07-05T19:28:28.675Z,6.80
2018-07-05T19:31:15.315Z,7.50
2018-07-05T19:34:01.827Z,6.80
2018-07-05T19:36:49.617Z,6.90
2018-07-05T19:39:36.115Z,8.00
2018-07-05T19:42:22.708Z,6.80
2018-07-05T19:45:09.214Z,6.67
2018-07-05T19:47:56.061Z,6.67
2018-07-05T19:50:42.774Z,7.13
2018-07-05T19:53:29.244Z,7.10
2018-07-05T19:56:16.021Z,6.80
2018-07-05T19:59:02.518Z,7.30
2018-07-05T20:01:49.271Z,8.20
2018-07-05T20:04:35.936Z,7.83
2018-07-05T20:07:22.683Z,7.07
2018-07-05T20:10:09.326Z,7.60
2018-07-05T20:12:55.846Z,7.70
2018-07-05T20:15:36.455Z,7.63
2018-07-05T20:18:23.978Z,7.90
2018-07-05T20:21:10.497Z,7.97
2018-07-05T20:23:57.246Z,7.77
2018-07-05T20:26:43.872Z,7.83
2018-07-05T20:29:30.493Z,7.50
2018-07-05T20:32:17.064Z,7.30
2018-07-05T20:35:03.616Z,6.90
2018-07-05T20:37:50.525Z,7.60
2018-07-05T20:40:36.939Z,7.43
2018-07-05T20:43:23.437Z,6.90
2018-07-05T20:46:09.950Z,8.47
2018-07-05T20:48:56.621Z,7.90
2018-07-05T20:51:43.454Z,7.60
2018-07-05T20:54:30.052Z,7.07
2018-07-05T20:57:16.853Z,7.30
2018-07-05T21:00:03.403Z,7.63
2018-07-05T21:02:43.902Z,6.93
2018-07-05T21:05:30.470Z,6.60
2018-07-05T21:08:17.372Z,7.90
2018-07-05T21:11:04.022Z,6.90
2018-07-05T21:13:50.441Z,6.70
2018-07-05T21:16:37.450Z,7.40
2018-07-05T21:19:24.097Z,7.30
2018-07-05T21:22:10.808Z,7.10
2018-07-05T21:24:57.438Z,6.87
2018-07-05T21:27:44.154Z,7.00
2018-07-05T21:30:34.221Z,6.83
2018-07-05T21:33:21.276Z,6.60
2018-07-05T21:36:07.980Z,6.43
2018-07-05T21:38:54.391Z,6.53
2018-07-05T21:41:40.934Z,6.37
2018-07-05T21:44:27.574Z,6.03
2018-07-05T21:47:14.206Z,6.63
2018-07-05T21:50:00.934Z,6.00
2018-07-05T21:52:47.771Z,5.83
2018-07-05T21:55:34.279Z,6.20
2018-07-05T21:58:20.780Z,5.83
2018-07-05T22:01:07.328Z,5.47
2018-07-05T22:03:53.947Z,5.50
2018-07-05T22:06:40.456Z,5.03
2018-07-05T22:09:26.851Z,5.40
2018-07-05T22:12:13.237Z,5.00
2018-07-05T22:14:59.899Z,4.80
2018-07-05T22:17:52.675Z,4.20
2018-07-05T22:20:44.688Z,4.40
2018-07-05T22:23:36.731Z,3.87
2018-07-05T22:26:36.735Z,4.60
2018-07-05T22:29:28.699Z,4.17
2018-07-05T22:32:15.095Z,4.27
2018-07-05T22:35:01.536Z,4.20
2018-07-05T22:37:47.901Z,5.03
2018-07-05T22:40:34.394Z,4.10
2018-07-05T22:43:21.053Z,4.03
2018-07-05T22:46:07.777Z,4.50
2018-07-05T22:48:54.230Z,4.73
2018-07-05T22:51:40.858Z,3.80
2018-07-05T22:54:27.413Z,3.93
2018-07-05T22:57:14.364Z,4.10
2018-07-05T23:00:00.987Z,3.37
2018-07-05T23:02:41.416Z,3.00
2018-07-05T23:05:27.974Z,3.40
2018-07-05T23:08:14.452Z,3.03
2018-07-05T23:11:00.849Z,2.97
2018-07-05T23:13:47.333Z,3.30
2018-07-05T23:16:33.823Z,3.40
2018-07-05T23:19:20.372Z,3.20
2018-07-05T23:22:06.819Z,2.73
2018-07-05T23:24:47.590Z,3.10
2018-07-05T23:27:34.137Z,2.90
2018-07-05T23:30:20.674Z,3.17
2018-07-05T23:33:07.076Z,3.13
2018-07-05T23:35:53.592Z,3.13
2018-07-05T23:38:40.068Z,2.90
2018-07-05T23:41:26.667Z,2.40
2018-07-05T23:44:13.192Z,3.07
2018-07-05T23:46:59.770Z,3.10
2018-07-05T23:49:40.285Z,2.73
2018-07-05T23:52:26.769Z,3.00
2018-07-05T23:55:13.231Z,3.00
2018-07-05T23:57:59.889Z,2.90
